Bardstown, Kentucky
Current Conditions -  °F | °C
As of 3:35 PM on Thursday 27 Nov 2014 (Local Time) from K6I2 Reporting Station
Broken Clouds Broken Clouds  
Wind Chill: -5°   Ceiling: 3300
Heat Index:   Visibility: 9mi
Dew Point: -4°   Wind: 12mph
Humidity: 75%   Direction: 360°N
Pressure: 30.36"   Gusts: 17mph
Location:  37.81°N, 85.47°W
Report Text: K6I2 272035Z AUTO 36010G15KT 300V360 9SM SCT018 SCT023 BKN033 00/M04 A3036 RMK AO2
Loading
Personal Weather Stations






























Interactive Weather Map New forecast layout! Learn more

10-Day Weather Forecast

Advertisements
Track Severe Weather on mobile